Bremer, Iowa
Current Conditions -  °F | °C
As of 9:54 AM on Tuesday 21 Oct 2014 (Local Time) from KALO Reporting Station
Clear Clear  
Wind Chill: 50°   Ceiling: Unl
Heat Index: 50°   Visibility: 10mi
Dew Point: 42°   Wind: 8mph
Humidity: 74%   Direction: 100°E
Pressure: 30.2"   Gusts: NA
Location:  42.787°N, 92.4284°W
Report Text: KALO 211454Z 10007KT 10SM CLR 10/06 A3020 RMK AO2 SLP230 T01000056 51018
Loading
Personal Weather Stations






























Interactive Weather Map
Tropical Storm Tracking
New forecast layout! Learn more

10-Day Weather Forecast

Advertisements
Track Severe Weather on mobile